Time;durP1;ratioP1;P1;durP2;ratioP2;P2;SDS_P1;SDS_P2;PMS_P1;PMS_P2;Temp;Humidity;BMP_temperature;BMP_pressure;BME280_temperature;BME280_humidity;BME280_pressure;Samples;Min_cycle;Max_cycle;Signal;HPM_P1;HPM_P2
2023/04/15 22:06:35;;;;;;;15.23;7.35;;;25.50;99.90;;;;;;5109536;27;20389;-44
2023/04/15 22:09:01;;;;;;;15.77;6.90;;;25.90;99.90;;;;;;5098309;28;20367;-46
2023/04/15 22:11:29;;;;;;;15.98;6.15;;;26.00;99.90;;;;;;5107463;28;20027;-43
2023/04/15 22:13:56;;;;;;;;;;;26.10;99.90;;;;;;5109772;28;20172;-43
2023/04/15 22:16:22;;;;;;;13.45;4.90;;;26.10;99.90;;;;;;5109507;28;20410;-44
2023/04/15 22:18:48;;;;;;;15.32;6.07;;;26.20;99.90;;;;;;5108993;28;20024;-45
2023/04/15 22:21:13;;;;;;;11.13;5.03;;;26.20;99.90;;;;;;5109362;28;20103;-45
2023/04/15 22:23:39;;;;;;;13.68;4.95;;;26.20;99.90;;;;;;5108937;28;20346;-44
2023/04/15 22:26:06;;;;;;;12.48;4.63;;;26.30;99.90;;;;;;5109254;28;20024;-43
2023/04/15 22:28:32;;;;;;;21.00;6.00;;;26.30;99.90;;;;;;5109338;28;20538;-44
2023/04/15 22:30:57;;;;;;;12.68;4.00;;;26.30;99.90;;;;;;5109178;28;20019;-45
2023/04/15 22:33:23;;;;;;;9.10;3.92;;;26.30;99.90;;;;;;5096687;28;20024;-45
2023/04/15 22:35:49;;;;;;;17.67;5.65;;;26.30;99.90;;;;;;5108322;28;20040;-44
2023/04/15 22:38:15;;;;;;;7.53;3.03;;;26.40;99.90;;;;;;5108036;28;20776;-44
2023/04/15 22:40:41;;;;;;;6.82;2.25;;;26.40;99.90;;;;;;5108601;28;20020;-44
2023/04/15 22:43:07;;;;;;;7.80;1.83;;;26.30;99.90;;;;;;5108504;28;20070;-45
2023/04/15 22:45:33;;;;;;;5.90;1.60;;;26.30;99.90;;;;;;5105936;28;20458;-45
2023/04/15 22:47:58;;;;;;;11.68;2.00;;;26.30;99.90;;;;;;5131672;27;20423;-45
2023/04/15 22:50:24;;;;;;;3.50;1.70;;;26.40;99.90;;;;;;5108697;28;20024;-44
2023/04/15 22:52:50;;;;;;;4.30;1.92;;;26.30;99.90;;;;;;5107459;28;20088;-44
2023/04/15 22:55:16;;;;;;;5.53;1.83;;;26.30;99.90;;;;;;5107225;28;20036;-45
2023/04/15 22:57:42;;;;;;;5.50;1.80;;;26.30;99.90;;;;;;5123426;22;20027;-48
2023/04/15 23:00:08;;;;;;;8.73;2.33;;;26.30;99.90;;;;;;5040346;28;20059;-48
2023/04/15 23:02:34;;;;;;;6.50;2.10;;;26.30;99.90;;;;;;5013993;28;20475;-50
2023/04/15 23:04:59;;;;;;;7.80;2.13;;;26.30;99.90;;;;;;5040912;28;20043;-49
2023/04/15 23:07:25;;;;;;;4.80;2.33;;;26.30;99.90;;;;;;5016988;28;20021;-49
2023/04/15 23:09:51;;;;;;;4.25;1.70;;;26.30;99.90;;;;;;5034306;28;20056;-50
2023/04/15 23:12:17;;;;;;;4.10;1.73;;;26.30;99.90;;;;;;5034480;28;21156;-48
2023/04/15 23:14:43;;;;;;;3.75;1.83;;;26.30;99.90;;;;;;5034359;28;20034;-49
2023/04/15 23:17:08;;;;;;;5.90;2.15;;;26.30;99.90;;;;;;5034803;28;20026;-49
2023/04/15 23:19:34;;;;;;;7.20;2.20;;;26.30;99.90;;;;;;5033844;28;20039;-48
2023/04/15 23:22:00;;;;;;;5.32;3.08;;;26.30;99.90;;;;;;5030864;28;20111;-47
2023/04/15 23:24:26;;;;;;;7.75;3.35;;;26.30;99.90;;;;;;5033657;28;20017;-48
2023/04/15 23:26:52;;;;;;;6.35;3.42;;;26.30;99.90;;;;;;4990567;28;20409;-46
2023/04/15 23:29:17;;;;;;;6.55;2.80;;;26.30;99.90;;;;;;4994714;28;20026;-47
2023/04/15 23:31:43;;;;;;;6.53;3.17;;;26.30;99.90;;;;;;5002888;28;20030;-47
2023/04/15 23:34:09;;;;;;;6.82;3.67;;;26.40;99.90;;;;;;4995756;28;20030;-47
2023/04/15 23:36:35;;;;;;;4.13;2.90;;;26.30;99.90;;;;;;5014325;28;20439;-47
2023/04/15 23:39:01;;;;;;;4.50;3.08;;;26.40;99.90;;;;;;4995082;28;20423;-48
2023/04/15 23:41:27;;;;;;;6.07;3.38;;;26.40;99.90;;;;;;5014355;28;20033;-47
2023/04/15 23:43:52;;;;;;;7.05;3.80;;;26.40;99.90;;;;;;5013666;28;20024;-47
2023/04/15 23:46:18;;;;;;;6.18;3.40;;;26.30;99.90;;;;;;5014590;28;20022;-48
2023/04/15 23:48:46;;;;;;;5.57;3.50;;;26.40;99.90;;;;;;5012718;28;20018;-48
2023/04/15 23:51:12;;;;;;;6.35;3.47;;;26.40;99.90;;;;;;5012586;28;20499;-46
2023/04/15 23:53:38;;;;;;;5.35;3.08;;;26.40;99.90;;;;;;5017008;28;20048;-47
2023/04/15 23:56:04;;;;;;;4.05;3.25;;;26.40;99.90;;;;;;5013679;28;20037;-48
2023/04/15 23:58:30;;;;;;;4.95;3.55;;;26.40;99.90;;;;;;5015218;28;20041;-49
